createdAt,value
2022-10-15T00:01:29.935Z,12.27
2022-10-15T00:03:58.219Z,12.28
2022-10-15T00:06:26.310Z,12.23
2022-10-15T00:08:55.800Z,12.18
2022-10-15T00:11:27.357Z,12.14
2022-10-15T00:13:56.501Z,12.24
2022-10-15T00:16:27.150Z,12.25
2022-10-15T00:18:57.478Z,12.17
2022-10-15T00:21:25.851Z,12.19
2022-10-15T00:23:55.626Z,12.20
2022-10-15T00:26:27.139Z,12.18
2022-10-15T00:28:58.641Z,12.23
2022-10-15T00:31:28.913Z,12.16
2022-10-15T00:33:59.143Z,12.18
2022-10-15T00:36:30.087Z,12.21
2022-10-15T00:39:00.313Z,12.20
2022-10-15T00:41:32.435Z,12.17
2022-10-15T00:44:02.461Z,12.20
2022-10-15T00:46:35.154Z,12.22
2022-10-15T00:49:09.586Z,12.24
2022-10-15T00:51:43.685Z,12.30
2022-10-15T00:54:14.128Z,12.20
2022-10-15T00:56:45.253Z,12.22
2022-10-15T00:59:15.437Z,12.26
2022-10-15T01:01:43.847Z,12.19
2022-10-15T01:04:13.252Z,12.18
2022-10-15T01:06:41.366Z,12.24
2022-10-15T01:09:09.490Z,12.29
2022-10-15T01:11:44.359Z,12.27
2022-10-15T01:14:24.769Z,12.26
2022-10-15T01:17:01.474Z,12.19
2022-10-15T01:19:56.383Z,12.07
2022-10-15T01:22:36.935Z,12.13
2022-10-15T01:27:55.799Z,12.11
2022-10-15T01:30:32.664Z,12.03
2022-10-15T01:33:10.396Z,12.03
2022-10-15T01:35:48.331Z,11.96
2022-10-15T01:38:31.572Z,11.97
2022-10-15T01:41:05.707Z,12.02
2022-10-15T01:43:39.541Z,12.01
2022-10-15T01:46:14.220Z,12.06
2022-10-15T01:48:44.851Z,12.03
2022-10-15T01:51:15.235Z,12.07
2022-10-15T01:53:45.132Z,12.04
2022-10-15T01:56:18.450Z,12.05
2022-10-15T01:58:49.083Z,12.05
2022-10-15T02:01:18.620Z,12.10
2022-10-15T02:03:47.932Z,12.04
2022-10-15T02:06:24.001Z,12.07
2022-10-15T02:09:08.951Z,12.06
2022-10-15T02:11:49.932Z,12.03
2022-10-15T02:14:26.240Z,12.00
2022-10-15T02:17:00.162Z,12.01
2022-10-15T02:19:35.268Z,12.06
2022-10-15T02:22:07.606Z,11.95
2022-10-15T02:24:41.129Z,12.02
2022-10-15T02:27:11.199Z,12.04
2022-10-15T02:29:45.145Z,11.97
2022-10-15T02:32:16.773Z,12.00
2022-10-15T02:34:48.063Z,11.98
2022-10-15T02:37:20.635Z,12.02
2022-10-15T02:39:49.748Z,12.04
2022-10-15T02:42:18.744Z,12.09
2022-10-15T02:44:47.072Z,12.12
2022-10-15T02:47:16.739Z,12.21
2022-10-15T02:49:45.054Z,12.19
2022-10-15T02:52:13.062Z,12.18
2022-10-15T02:54:41.155Z,12.15
2022-10-15T02:57:09.307Z,12.08
2022-10-15T02:59:37.323Z,12.04
2022-10-15T03:02:05.359Z,11.92
2022-10-15T03:04:35.274Z,11.88
2022-10-15T03:07:03.444Z,11.94
2022-10-15T03:09:31.415Z,12.01
2022-10-15T03:11:59.536Z,12.04
2022-10-15T03:14:27.872Z,11.94
2022-10-15T03:16:55.815Z,11.92
2022-10-15T03:19:23.961Z,11.93
2022-10-15T03:21:53.965Z,11.98
2022-10-15T03:24:22.012Z,12.04
2022-10-15T03:26:50.060Z,11.96
2022-10-15T03:29:18.144Z,12.02
2022-10-15T03:31:46.109Z,12.04
2022-10-15T03:34:14.122Z,12.10
2022-10-15T03:36:42.125Z,12.08
2022-10-15T03:39:12.325Z,11.96
2022-10-15T03:41:40.906Z,11.97
2022-10-15T03:44:10.117Z,11.92
2022-10-15T03:46:38.117Z,11.91
2022-10-15T03:49:06.633Z,11.92
2022-10-15T03:51:34.799Z,11.92
2022-10-15T03:54:02.711Z,11.91
2022-10-15T03:56:32.735Z,11.85
2022-10-15T03:59:00.714Z,11.93
2022-10-15T04:01:28.729Z,12.04
2022-10-15T04:03:56.799Z,11.99
2022-10-15T04:06:24.747Z,12.02
2022-10-15T04:08:53.095Z,12.05
2022-10-15T04:11:21.229Z,12.13
2022-10-15T04:13:52.177Z,12.08
2022-10-15T04:16:20.144Z,11.99
2022-10-15T04:18:49.212Z,11.97
2022-10-15T04:21:17.213Z,11.91
2022-10-15T04:23:45.177Z,11.89
2022-10-15T04:26:13.162Z,11.91
2022-10-15T04:28:41.501Z,11.90
2022-10-15T04:31:10.964Z,12.01
2022-10-15T04:33:38.988Z,11.84
2022-10-15T04:36:09.188Z,11.84
2022-10-15T04:38:37.312Z,11.84
2022-10-15T04:41:07.006Z,11.77
2022-10-15T04:43:35.124Z,11.79
2022-10-15T04:46:07.561Z,11.80
2022-10-15T04:48:42.006Z,11.87
2022-10-15T04:51:14.534Z,11.96
2022-10-15T04:53:42.870Z,12.05
2022-10-15T04:56:15.499Z,12.03
2022-10-15T04:58:44.749Z,12.02
2022-10-15T05:01:15.577Z,12.03
2022-10-15T05:03:47.132Z,11.98
2022-10-15T05:06:18.642Z,12.05
2022-10-15T05:08:47.926Z,12.05
2022-10-15T05:11:18.255Z,12.00
2022-10-15T05:13:46.947Z,11.99
2022-10-15T05:16:16.819Z,12.00
2022-10-15T05:18:48.509Z,12.04
2022-10-15T05:21:18.318Z,12.16
2022-10-15T05:23:47.346Z,12.26
2022-10-15T05:26:20.104Z,12.25
2022-10-15T05:28:48.447Z,12.24
2022-10-15T05:31:19.301Z,12.32
2022-10-15T05:33:50.139Z,12.35
2022-10-15T05:36:20.513Z,12.39
2022-10-15T05:38:51.906Z,12.34
2022-10-15T05:41:21.208Z,12.38
2022-10-15T05:43:53.373Z,12.52
2022-10-15T05:46:22.171Z,12.61
2022-10-15T05:48:52.956Z,12.72
2022-10-15T05:51:21.476Z,12.87
2022-10-15T05:53:52.741Z,12.84
2022-10-15T05:56:21.626Z,12.71
2022-10-15T05:58:49.744Z,12.79
2022-10-15T06:01:17.961Z,12.89
2022-10-15T06:03:46.400Z,12.93
2022-10-15T06:06:21.359Z,12.90
2022-10-15T06:08:49.936Z,12.93
2022-10-15T06:11:19.622Z,13.01
2022-10-15T06:13:48.401Z,13.06
2022-10-15T06:16:21.117Z,13.12
2022-10-15T06:18:53.238Z,13.19
2022-10-15T06:21:23.196Z,13.33
2022-10-15T06:23:51.162Z,13.37
2022-10-15T06:26:19.167Z,13.45
2022-10-15T06:28:47.307Z,13.37
2022-10-15T06:31:16.021Z,13.42
2022-10-15T06:33:44.408Z,13.49
2022-10-15T06:36:13.778Z,13.53
2022-10-15T06:38:44.821Z,13.56
2022-10-15T06:41:12.953Z,13.63
2022-10-15T06:43:41.114Z,13.80
2022-10-15T06:46:09.294Z,13.89
2022-10-15T06:48:37.611Z,13.99
2022-10-15T06:51:06.088Z,14.05
2022-10-15T06:53:35.355Z,14.04
2022-10-15T06:56:05.843Z,14.20
2022-10-15T06:58:33.889Z,14.35
2022-10-15T07:01:02.642Z,14.48
2022-10-15T07:03:31.230Z,14.47
2022-10-15T07:06:04.847Z,14.67
2022-10-15T07:08:32.985Z,14.86
2022-10-15T07:11:05.309Z,14.99
2022-10-15T07:13:33.422Z,15.05
2022-10-15T07:16:05.942Z,15.13
2022-10-15T07:18:34.344Z,15.03
2022-10-15T07:21:02.639Z,15.09
2022-10-15T07:23:30.766Z,15.22
2022-10-15T07:26:00.389Z,15.37
2022-10-15T07:28:29.829Z,15.38
2022-10-15T07:31:02.103Z,15.43
2022-10-15T07:33:30.335Z,15.52
2022-10-15T07:35:58.476Z,15.49
2022-10-15T07:38:26.780Z,15.36
2022-10-15T07:40:58.481Z,15.57
2022-10-15T07:43:26.576Z,15.57
2022-10-15T07:45:56.630Z,15.57
2022-10-15T07:48:25.123Z,15.54
2022-10-15T07:50:56.247Z,15.52
2022-10-15T07:53:24.976Z,15.48
2022-10-15T07:55:53.281Z,15.47
2022-10-15T07:58:21.653Z,15.39
2022-10-15T08:00:49.737Z,15.33
2022-10-15T08:03:19.108Z,15.33
2022-10-15T08:05:47.272Z,15.37
2022-10-15T08:08:16.357Z,15.40
2022-10-15T08:10:44.322Z,15.41
2022-10-15T08:13:12.272Z,15.44
2022-10-15T08:15:41.221Z,15.50
2022-10-15T08:18:10.385Z,15.56
2022-10-15T08:20:40.375Z,15.59
2022-10-15T08:23:16.926Z,15.60
2022-10-15T08:25:45.519Z,15.77
2022-10-15T08:28:13.745Z,15.83
2022-10-15T08:30:41.935Z,15.94
2022-10-15T08:33:10.489Z,15.96
2022-10-15T08:35:43.484Z,15.91
2022-10-15T08:38:14.804Z,15.97
2022-10-15T08:40:49.606Z,15.91
2022-10-15T08:43:24.412Z,15.93
2022-10-15T08:45:55.090Z,16.05
2022-10-15T08:48:31.622Z,16.14
2022-10-15T08:51:05.206Z,16.21
2022-10-15T08:53:40.802Z,16.27
2022-10-15T08:56:25.401Z,16.38
2022-10-15T08:59:03.299Z,16.45
2022-10-15T09:01:36.772Z,16.53
2022-10-15T09:04:20.963Z,16.67
2022-10-15T09:06:55.383Z,16.75
2022-10-15T09:09:31.598Z,16.83
2022-10-15T09:12:08.262Z,16.83
2022-10-15T09:14:40.582Z,16.95
2022-10-15T09:17:21.645Z,16.98
2022-10-15T09:19:53.329Z,16.98
2022-10-15T09:22:27.052Z,16.93
2022-10-15T09:24:56.051Z,16.96
2022-10-15T09:27:32.595Z,16.97
2022-10-15T09:30:07.251Z,16.97
2022-10-15T09:32:40.629Z,17.02
2022-10-15T09:35:18.202Z,17.21
2022-10-15T09:37:55.080Z,17.25
2022-10-15T09:40:40.772Z,17.33
2022-10-15T09:43:11.827Z,17.47
2022-10-15T09:45:39.887Z,17.47
2022-10-15T09:48:17.091Z,17.39
2022-10-15T09:50:51.705Z,17.61
2022-10-15T09:53:28.255Z,17.87
2022-10-15T09:56:10.114Z,17.87
2022-10-15T09:58:42.613Z,17.82
2022-10-15T10:01:19.768Z,17.97
2022-10-15T10:03:53.251Z,18.22
2022-10-15T10:06:23.971Z,18.63
2022-10-15T10:08:57.005Z,18.98
2022-10-15T10:11:26.880Z,19.18
2022-10-15T10:13:57.910Z,19.34
2022-10-15T10:16:27.608Z,19.27
2022-10-15T10:19:14.250Z,19.47
2022-10-15T10:21:44.176Z,19.53
2022-10-15T10:24:30.762Z,19.63
2022-10-15T10:27:00.013Z,19.64
2022-10-15T10:29:34.797Z,19.40
2022-10-15T10:32:12.281Z,18.89
2022-10-15T10:34:46.468Z,18.75
2022-10-15T10:37:16.962Z,18.49
2022-10-15T10:39:47.441Z,18.00
2022-10-15T10:42:38.575Z,17.94
2022-10-15T10:45:19.777Z,17.99
2022-10-15T10:47:48.077Z,18.03
2022-10-15T10:50:32.740Z,18.21
2022-10-15T10:53:19.416Z,18.13
2022-10-15T10:55:50.684Z,18.11
2022-10-15T10:58:24.824Z,18.02
2022-10-15T11:00:56.465Z,17.88
2022-10-15T11:03:32.775Z,18.03
2022-10-15T11:06:11.363Z,18.14
2022-10-15T11:08:51.976Z,18.13
2022-10-15T11:11:31.568Z,18.10
2022-10-15T11:14:08.751Z,17.94
2022-10-15T11:16:47.090Z,17.99
2022-10-15T11:19:54.599Z,18.06
2022-10-15T11:22:34.020Z,18.13
2022-10-15T11:25:17.222Z,18.12
2022-10-15T11:28:13.066Z,18.12
2022-10-15T11:30:50.764Z,18.11
2022-10-15T11:33:41.018Z,18.11
2022-10-15T11:36:25.301Z,18.00
2022-10-15T11:39:15.859Z,17.92
2022-10-15T11:41:56.568Z,17.90
2022-10-15T11:44:38.881Z,17.98
2022-10-15T11:47:29.330Z,18.02
2022-10-15T11:50:14.658Z,18.08
2022-10-15T11:52:54.497Z,18.21
2022-10-15T11:55:29.180Z,18.39
2022-10-15T11:58:03.343Z,18.62
2022-10-15T12:00:37.872Z,18.67
2022-10-15T12:03:13.614Z,18.62
2022-10-15T12:05:48.413Z,18.72
2022-10-15T12:08:18.563Z,18.89
2022-10-15T12:11:04.451Z,18.94
2022-10-15T12:13:40.715Z,19.05
2022-10-15T12:16:24.446Z,19.20
2022-10-15T12:19:00.129Z,19.26
2022-10-15T12:21:32.998Z,19.32
2022-10-15T12:24:01.760Z,19.36
2022-10-15T12:26:33.505Z,19.29
2022-10-15T12:29:03.968Z,19.32
2022-10-15T12:31:52.773Z,19.24
2022-10-15T12:34:31.202Z,18.94
2022-10-15T12:37:02.988Z,18.80
2022-10-15T12:39:52.229Z,18.81
2022-10-15T12:42:27.783Z,18.84
2022-10-15T12:44:59.861Z,19.07
2022-10-15T12:47:54.167Z,19.08
2022-10-15T12:50:24.624Z,19.22
2022-10-15T12:52:59.107Z,19.32
2022-10-15T12:55:33.085Z,19.35
2022-10-15T12:58:13.227Z,19.44
2022-10-15T13:00:43.738Z,19.54
2022-10-15T13:03:22.358Z,19.48
2022-10-15T13:05:53.965Z,19.42
2022-10-15T13:08:25.806Z,19.29
2022-10-15T13:10:57.343Z,19.32
2022-10-15T13:13:29.361Z,19.30
2022-10-15T13:16:00.672Z,19.29
2022-10-15T13:18:32.193Z,19.27
2022-10-15T13:23:34.884Z,19.25
2022-10-15T13:26:14.247Z,19.21
2022-10-15T13:28:43.822Z,19.21
2022-10-15T13:31:18.894Z,19.30
2022-10-15T13:33:53.072Z,19.43
2022-10-15T13:36:26.718Z,19.35
2022-10-15T13:39:01.463Z,19.35
2022-10-15T13:41:32.893Z,19.35
2022-10-15T13:44:02.913Z,19.38
2022-10-15T13:46:33.031Z,19.43
2022-10-15T13:49:05.041Z,19.49
2022-10-15T13:51:40.841Z,19.55
2022-10-15T13:54:13.229Z,19.52
2022-10-15T13:56:50.315Z,19.47
2022-10-15T13:59:20.328Z,19.41
2022-10-15T14:01:51.369Z,19.42
2022-10-15T14:04:23.203Z,19.44
2022-10-15T14:09:36.663Z,19.46
2022-10-15T14:12:07.099Z,19.42
2022-10-15T14:14:37.305Z,19.31
2022-10-15T14:17:09.011Z,19.20
2022-10-15T14:19:40.202Z,19.10
2022-10-15T14:22:08.466Z,18.93
2022-10-15T14:24:38.738Z,18.74
2022-10-15T14:27:08.765Z,18.69
2022-10-15T14:29:40.170Z,18.70
2022-10-15T14:32:26.884Z,18.68
2022-10-15T14:34:57.616Z,18.71
2022-10-15T14:37:40.932Z,18.71
2022-10-15T14:40:19.792Z,18.66
2022-10-15T14:42:49.461Z,18.60
2022-10-15T14:45:27.340Z,18.60
2022-10-15T14:47:58.984Z,18.48
2022-10-15T14:50:32.127Z,18.38
2022-10-15T14:53:04.037Z,18.43
2022-10-15T14:55:39.021Z,18.49
2022-10-15T14:58:10.062Z,18.64
2022-10-15T15:00:43.559Z,18.53
2022-10-15T15:03:16.303Z,18.49
2022-10-15T15:05:50.421Z,18.34
2022-10-15T15:08:18.792Z,18.35
2022-10-15T15:13:23.318Z,18.25
2022-10-15T15:15:51.559Z,18.16
2022-10-15T15:18:20.577Z,18.29
2022-10-15T15:20:52.049Z,18.40
2022-10-15T15:23:22.789Z,18.34
2022-10-15T15:25:52.648Z,18.21
2022-10-15T15:28:22.795Z,18.16
2022-10-15T15:30:57.257Z,18.17
2022-10-15T15:33:25.533Z,18.12
2022-10-15T15:36:01.509Z,18.02
2022-10-15T15:38:31.383Z,17.92
2022-10-15T15:41:03.554Z,17.90
2022-10-15T15:43:31.639Z,17.89
2022-10-15T15:45:59.601Z,17.79
2022-10-15T15:48:27.728Z,17.76
2022-10-15T15:51:00.164Z,17.72
2022-10-15T15:53:28.218Z,17.73
2022-10-15T15:55:56.194Z,17.68
2022-10-15T15:58:24.166Z,17.61
2022-10-15T16:00:52.287Z,17.65
2022-10-15T16:03:20.269Z,17.71
2022-10-15T16:08:24.308Z,17.57
2022-10-15T16:10:52.341Z,17.51
2022-10-15T16:13:20.296Z,17.51
2022-10-15T16:15:48.522Z,17.52
2022-10-15T16:18:17.688Z,17.43
2022-10-15T16:20:48.726Z,17.36
2022-10-15T16:23:17.489Z,17.23
2022-10-15T16:25:46.918Z,17.03
2022-10-15T16:28:14.929Z,16.86
2022-10-15T16:30:43.448Z,16.64
2022-10-15T16:33:11.475Z,16.48
2022-10-15T16:35:39.489Z,16.41
2022-10-15T16:38:07.886Z,16.26
2022-10-15T16:40:35.858Z,16.09
2022-10-15T16:43:05.263Z,15.99
2022-10-15T16:45:33.579Z,15.97
2022-10-15T16:48:01.595Z,15.87
2022-10-15T16:50:29.560Z,15.87
2022-10-15T16:52:57.665Z,15.78
2022-10-15T16:55:25.637Z,15.73
2022-10-15T16:57:53.923Z,15.61
2022-10-15T17:00:23.324Z,15.55
2022-10-15T17:02:51.306Z,15.40
2022-10-15T17:05:19.329Z,15.31
2022-10-15T17:07:47.449Z,15.28
2022-10-15T17:10:15.650Z,15.15
2022-10-15T17:12:43.960Z,15.09
2022-10-15T17:15:12.362Z,15.01
2022-10-15T17:17:41.768Z,14.94
2022-10-15T17:20:10.823Z,14.87
2022-10-15T17:22:39.040Z,14.81
2022-10-15T17:25:07.893Z,14.67
2022-10-15T17:27:36.669Z,14.73
2022-10-15T17:30:05.252Z,14.69
2022-10-15T17:32:33.640Z,14.64
2022-10-15T17:35:04.311Z,14.58
2022-10-15T17:37:32.811Z,14.57
2022-10-15T17:40:00.982Z,14.51
2022-10-15T17:42:29.073Z,14.59
2022-10-15T17:44:57.075Z,14.55
2022-10-15T17:47:25.396Z,14.55
2022-10-15T17:49:53.844Z,14.58
2022-10-15T17:52:23.806Z,14.55
2022-10-15T17:54:52.658Z,14.52
2022-10-15T17:57:20.805Z,14.45
2022-10-15T17:59:51.171Z,14.55
2022-10-15T18:02:19.405Z,14.51
2022-10-15T18:04:47.773Z,14.51
2022-10-15T18:07:19.208Z,14.53
2022-10-15T18:09:48.593Z,14.59
2022-10-15T18:12:16.661Z,14.63
2022-10-15T18:14:44.697Z,14.58
2022-10-15T18:17:13.145Z,14.57
2022-10-15T18:19:42.089Z,14.67
2022-10-15T18:22:10.768Z,14.69
2022-10-15T18:24:38.797Z,14.55
2022-10-15T18:27:08.263Z,14.47
2022-10-15T18:29:37.373Z,14.50
2022-10-15T18:32:05.643Z,14.55
2022-10-15T18:34:35.430Z,14.47
2022-10-15T18:37:03.475Z,14.42
2022-10-15T18:39:31.468Z,14.55
2022-10-15T18:41:59.811Z,14.58
2022-10-15T18:44:29.549Z,14.56
2022-10-15T18:46:57.850Z,14.56
2022-10-15T18:49:26.032Z,14.56
2022-10-15T18:51:55.365Z,14.50
2022-10-15T18:54:23.974Z,14.63
2022-10-15T18:56:52.875Z,14.63
2022-10-15T18:59:21.431Z,14.57
2022-10-15T19:01:51.385Z,14.60
2022-10-15T19:04:20.923Z,14.56
2022-10-15T19:06:51.181Z,14.51
2022-10-15T19:09:21.629Z,14.36
2022-10-15T19:11:52.631Z,14.47
2022-10-15T19:14:21.304Z,14.37
2022-10-15T19:16:51.384Z,14.48
2022-10-15T19:19:23.136Z,14.51
2022-10-15T19:21:55.928Z,14.47
2022-10-15T19:24:25.222Z,14.41
2022-10-15T19:26:53.814Z,14.35
2022-10-15T19:29:22.078Z,14.31
2022-10-15T19:31:54.070Z,14.36
2022-10-15T19:34:23.294Z,14.29
2022-10-15T19:36:51.829Z,14.18
2022-10-15T19:39:23.471Z,14.12
2022-10-15T19:41:53.414Z,14.00
2022-10-15T19:44:26.217Z,13.93
2022-10-15T19:46:56.101Z,13.87
2022-10-15T19:49:24.777Z,13.86
2022-10-15T19:51:52.980Z,13.92
2022-10-15T19:54:21.360Z,13.75
2022-10-15T19:56:50.069Z,13.65
2022-10-15T19:59:18.295Z,13.63
2022-10-15T20:01:46.500Z,13.74
2022-10-15T20:04:16.662Z,13.66
2022-10-15T20:06:44.908Z,13.58
2022-10-15T20:09:13.652Z,13.50
2022-10-15T20:11:42.054Z,13.43
2022-10-15T20:14:10.625Z,13.32
2022-10-15T20:16:39.260Z,13.29
2022-10-15T20:19:07.627Z,13.25
2022-10-15T20:21:37.234Z,13.27
2022-10-15T20:24:05.824Z,13.29
2022-10-15T20:26:34.381Z,13.15
2022-10-15T20:29:02.530Z,13.06
2022-10-15T20:31:33.256Z,12.95
2022-10-15T20:34:02.266Z,12.88
2022-10-15T20:36:30.620Z,12.93
2022-10-15T20:39:01.536Z,12.87
2022-10-15T20:41:30.148Z,12.86
2022-10-15T20:43:58.468Z,12.85
2022-10-15T20:46:31.401Z,12.78
2022-10-15T20:49:07.584Z,12.72
2022-10-15T20:51:38.764Z,12.66
2022-10-15T20:54:09.265Z,12.60
2022-10-15T20:56:38.582Z,12.57
2022-10-15T20:59:06.679Z,12.47
2022-10-15T21:01:35.646Z,12.44
2022-10-15T21:04:04.826Z,12.40
2022-10-15T21:06:33.142Z,12.39
2022-10-15T21:09:01.215Z,12.37
2022-10-15T21:11:30.882Z,12.35
2022-10-15T21:14:00.651Z,12.38
2022-10-15T21:16:28.789Z,12.26
2022-10-15T21:18:56.929Z,12.20
2022-10-15T21:21:24.966Z,12.19
2022-10-15T21:23:52.926Z,12.15
2022-10-15T21:26:21.884Z,12.08
2022-10-15T21:28:55.352Z,12.00
2022-10-15T21:31:23.673Z,11.92
2022-10-15T21:33:52.179Z,11.91
2022-10-15T21:36:22.219Z,11.84
2022-10-15T21:38:53.422Z,11.80
2022-10-15T21:41:21.793Z,11.74
2022-10-15T21:43:51.627Z,11.69
2022-10-15T21:46:20.270Z,11.64
2022-10-15T21:48:48.398Z,11.62
2022-10-15T21:51:18.914Z,11.56
2022-10-15T21:53:48.327Z,11.61
2022-10-15T21:56:16.618Z,11.64
2022-10-15T21:58:45.358Z,11.56
2022-10-15T22:01:19.085Z,11.50
2022-10-15T22:03:48.923Z,11.50
2022-10-15T22:06:18.230Z,11.52
2022-10-15T22:08:47.385Z,11.60
2022-10-15T22:11:17.454Z,11.51
2022-10-15T22:13:48.411Z,11.46
2022-10-15T22:16:19.628Z,11.47
2022-10-15T22:18:48.252Z,11.43
2022-10-15T22:21:19.584Z,11.42
2022-10-15T22:23:49.818Z,11.38
2022-10-15T22:26:19.205Z,11.34
2022-10-15T22:28:48.347Z,11.37
2022-10-15T22:31:18.443Z,11.33
2022-10-15T22:33:47.210Z,11.29
2022-10-15T22:36:17.402Z,11.26
2022-10-15T22:38:48.173Z,11.29
2022-10-15T22:41:16.967Z,11.31
2022-10-15T22:43:45.356Z,11.26
2022-10-15T22:46:13.664Z,11.20
2022-10-15T22:48:44.462Z,11.19
2022-10-15T22:51:14.836Z,11.21
2022-10-15T22:53:43.469Z,11.30
2022-10-15T22:56:13.891Z,11.40
2022-10-15T22:58:42.381Z,11.44
2022-10-15T23:01:12.530Z,11.47
2022-10-15T23:03:43.473Z,11.56
2022-10-15T23:06:12.094Z,11.71
2022-10-15T23:08:41.764Z,11.69
2022-10-15T23:11:12.904Z,11.63
2022-10-15T23:13:41.903Z,11.56
2022-10-15T23:16:13.313Z,11.64
2022-10-15T23:18:44.646Z,11.61
2022-10-15T23:21:15.292Z,11.54
2022-10-15T23:23:43.843Z,11.41
2022-10-15T23:26:13.253Z,11.34
2022-10-15T23:28:41.640Z,11.29
2022-10-15T23:31:16.626Z,11.24
2022-10-15T23:33:46.196Z,11.22
2022-10-15T23:36:15.351Z,11.15
2022-10-15T23:38:43.446Z,11.05
2022-10-15T23:41:11.899Z,11.04
2022-10-15T23:43:39.933Z,11.01
2022-10-15T23:46:08.509Z,10.92
2022-10-15T23:48:36.808Z,10.90
2022-10-15T23:51:13.281Z,10.94
2022-10-15T23:53:41.833Z,10.95
2022-10-15T23:56:10.132Z,10.86
2022-10-15T23:58:38.423Z,10.88
